Time;durP1;ratioP1;P1;durP2;ratioP2;P2;SDS_P1;SDS_P2;PMS_P1;PMS_P2;Temp;Humidity;BMP_temperature;BMP_pressure;BME280_temperature;BME280_humidity;BME280_pressure;Samples;Min_cycle;Max_cycle;Signal;HPM_P1;HPM_P2
2022/04/03 00:00:32;;;;;;;5.30;4.73;;;4.20;66.20;;;;;;5027215;28;20989;-46
2022/04/03 00:03:00;;;;;;;7.03;4.97;;;4.20;66.80;;;;;;4991618;28;20468;-46
2022/04/03 00:05:28;;;;;;;5.17;4.50;;;4.20;66.90;;;;;;5023846;28;20460;-46
2022/04/03 00:07:55;;;;;;;5.77;5.17;;;4.20;66.00;;;;;;5023535;28;20489;-46
2022/04/03 00:10:22;;;;;;;5.97;5.37;;;4.20;65.90;;;;;;5025937;28;20979;-45
2022/04/03 00:12:50;;;;;;;9.20;4.70;;;4.10;66.20;;;;;;5005214;28;20460;-46
2022/04/03 00:15:18;;;;;;;5.23;4.30;;;4.10;66.20;;;;;;5024403;28;21075;-46
2022/04/03 00:17:45;;;;;;;4.50;4.10;;;4.10;66.50;;;;;;5024424;28;20498;-46
2022/04/03 00:20:13;;;;;;;5.30;4.70;;;4.00;66.50;;;;;;5024289;28;20464;-46
2022/04/03 00:22:42;;;;;;;9.70;5.00;;;4.10;66.10;;;;;;5022231;28;20554;-47
2022/04/03 00:25:11;;;;;;;8.43;5.50;;;4.10;66.50;;;;;;5011034;28;20460;-46
2022/04/03 00:27:38;;;;;;;5.93;4.30;;;4.00;66.50;;;;;;5006335;28;20505;-47
2022/04/03 00:30:07;;;;;;;7.00;5.43;;;4.00;66.90;;;;;;5023758;28;20463;-46
2022/04/03 00:32:34;;;;;;;5.40;3.90;;;4.10;66.90;;;;;;5026854;28;20887;-46
2022/04/03 00:35:05;;;;;;;4.80;4.40;;;4.10;67.00;;;;;;5023088;28;20468;-46
2022/04/03 00:37:33;;;;;;;7.70;4.47;;;4.00;66.30;;;;;;5024822;28;20479;-46
2022/04/03 00:39:59;;;;;;;5.90;4.07;;;4.10;66.50;;;;;;5007353;28;20455;-46
2022/04/03 00:42:26;;;;;;;7.27;4.50;;;4.00;66.10;;;;;;5023296;28;21144;-46
2022/04/03 00:44:53;;;;;;;6.90;4.80;;;4.00;66.30;;;;;;5024780;28;20474;-46
2022/04/03 00:47:21;;;;;;;5.50;5.00;;;3.90;66.20;;;;;;5022372;28;21010;-46
2022/04/03 00:49:48;;;;;;;6.60;4.77;;;3.90;66.10;;;;;;5023903;28;20464;-46
2022/04/03 00:52:14;;;;;;;7.13;5.50;;;3.90;66.30;;;;;;5021701;28;20832;-46
2022/04/03 00:54:42;;;;;;;5.10;4.53;;;3.90;66.10;;;;;;5006104;28;20456;-46
2022/04/03 00:57:10;;;;;;;6.77;4.17;;;3.90;65.80;;;;;;5024714;28;20466;-47
2022/04/03 00:59:37;;;;;;;5.83;4.17;;;3.90;66.00;;;;;;5023894;28;20473;-46
2022/04/03 01:02:04;;;;;;;4.43;4.03;;;3.90;65.70;;;;;;5005434;28;20502;-46
2022/04/03 01:04:31;;;;;;;5.87;4.20;;;3.90;66.20;;;;;;5007278;28;20451;-46
2022/04/03 01:06:58;;;;;;;6.70;5.00;;;3.80;66.40;;;;;;5022712;28;20472;-46
2022/04/03 01:09:26;;;;;;;5.20;4.70;;;3.80;65.80;;;;;;5021276;28;20455;-45
2022/04/03 01:11:53;;;;;;;5.00;4.13;;;3.80;66.10;;;;;;5022442;28;20969;-46
2022/04/03 01:14:33;;;;;;;5.90;4.70;;;3.80;65.70;;;;;;5019864;28;20998;-45
2022/04/03 01:17:00;;;;;;;5.50;4.80;;;3.80;66.00;;;;;;5024147;28;20470;-45
2022/04/03 01:19:27;;;;;;;6.13;5.00;;;3.80;66.20;;;;;;5010603;28;20455;-46
2022/04/03 01:21:55;;;;;;;5.67;4.90;;;3.70;66.40;;;;;;5008433;28;20463;-45
2022/04/03 01:24:23;;;;;;;7.70;4.57;;;3.70;66.30;;;;;;5027142;28;20546;-45
2022/04/03 01:26:51;;;;;;;7.63;5.23;;;3.70;65.80;;;;;;5027955;28;21021;-45
2022/04/03 01:29:18;;;;;;;5.47;4.97;;;3.70;66.20;;;;;;5026958;28;20467;-45
2022/04/03 01:31:46;;;;;;;6.20;4.47;;;3.70;66.30;;;;;;5026873;28;20964;-46
2022/04/03 01:34:14;;;;;;;5.43;4.63;;;3.60;66.30;;;;;;5024745;28;20554;-46
2022/04/03 01:36:41;;;;;;;7.00;4.40;;;3.60;66.60;;;;;;5027410;28;20458;-45
2022/04/03 01:39:10;;;;;;;5.33;4.67;;;3.50;66.50;;;;;;5027556;28;20812;-45
2022/04/03 01:41:42;;;;;;;5.20;4.17;;;3.60;66.90;;;;;;5008754;28;20664;-46
2022/04/03 01:44:10;;;;;;;4.50;3.97;;;3.60;67.20;;;;;;5022635;28;20471;-45
2022/04/03 01:46:38;;;;;;;5.70;4.87;;;3.50;66.80;;;;;;5008476;28;20467;-45
2022/04/03 01:49:06;;;;;;;6.53;5.40;;;3.50;67.00;;;;;;5026120;28;20502;-46
2022/04/03 01:51:34;;;;;;;5.03;4.50;;;3.50;66.90;;;;;;5023731;28;20473;-46
2022/04/03 01:54:01;;;;;;;5.60;4.30;;;3.50;67.30;;;;;;5025199;28;20825;-47
2022/04/03 01:56:28;;;;;;;5.40;4.90;;;3.50;67.30;;;;;;5025387;28;20464;-46
2022/04/03 01:58:55;;;;;;;5.10;4.63;;;3.50;67.20;;;;;;5022307;28;20473;-46
2022/04/03 02:01:24;;;;;;;5.90;4.33;;;3.40;67.10;;;;;;4985325;28;20467;-46
2022/04/03 02:03:51;;;;;;;6.27;4.53;;;3.40;67.20;;;;;;5026738;28;20554;-46
2022/04/03 02:06:18;;;;;;;6.83;4.57;;;3.40;67.10;;;;;;5027495;28;20456;-42
2022/04/03 02:08:45;;;;;;;5.47;4.93;;;3.30;67.40;;;;;;5023987;28;20490;-43
2022/04/03 02:11:12;;;;;;;5.73;4.80;;;3.30;67.70;;;;;;5027004;28;20448;-42
2022/04/03 02:13:38;;;;;;;6.00;5.40;;;3.30;67.80;;;;;;5026325;28;20462;-43
2022/04/03 02:16:05;;;;;;;7.73;4.17;;;3.30;67.80;;;;;;4994199;28;20479;-43
2022/04/03 02:18:32;;;;;;;7.43;5.10;;;3.30;67.90;;;;;;5026046;28;20456;-43
2022/04/03 02:20:58;;;;;;;4.53;4.13;;;3.30;68.00;;;;;;5026731;28;20531;-43
2022/04/03 02:23:25;;;;;;;5.80;4.50;;;3.30;67.90;;;;;;5024797;28;21010;-43
2022/04/03 02:25:52;;;;;;;5.30;4.10;;;3.30;67.70;;;;;;5023657;28;20546;-43
2022/04/03 02:28:19;;;;;;;7.50;4.47;;;3.30;67.70;;;;;;5023994;28;20498;-43
2022/04/03 02:30:47;;;;;;;5.43;4.80;;;3.20;67.80;;;;;;5024833;28;20559;-43
2022/04/03 02:33:15;;;;;;;4.80;4.30;;;3.20;68.00;;;;;;4985225;28;1121953;-42
2022/04/03 02:35:42;;;;;;;4.80;4.30;;;3.20;68.20;;;;;;5027856;28;20454;-43
2022/04/03 02:38:09;;;;;;;6.07;4.50;;;3.10;68.20;;;;;;5027225;28;20455;-43
2022/04/03 02:40:36;;;;;;;5.73;4.90;;;3.10;68.40;;;;;;5027534;28;20466;-42
2022/04/03 02:43:03;;;;;;;6.73;5.47;;;3.10;68.40;;;;;;5010228;28;20824;-43
2022/04/03 02:45:30;;;;;;;6.03;4.10;;;3.10;68.70;;;;;;5027756;28;20543;-43
2022/04/03 02:47:57;;;;;;;5.47;4.60;;;3.10;68.60;;;;;;5026214;28;20487;-43
2022/04/03 02:50:25;;;;;;;5.20;4.10;;;3.10;68.30;;;;;;5026712;28;21219;-43
2022/04/03 02:52:54;;;;;;;7.93;4.90;;;3.10;68.10;;;;;;5008238;28;20439;-43
2022/04/03 02:55:22;;;;;;;6.33;5.30;;;3.00;67.90;;;;;;5026800;28;20456;-43
2022/04/03 02:57:49;;;;;;;6.90;4.60;;;3.00;68.10;;;;;;5026000;28;20455;-42
2022/04/03 03:00:17;;;;;;;7.23;4.67;;;3.00;68.20;;;;;;5023037;28;20972;-42
2022/04/03 03:02:45;;;;;;;6.70;5.10;;;2.90;68.30;;;;;;5026621;28;20456;-43
2022/04/03 03:05:15;;;;;;;4.97;3.93;;;2.90;68.50;;;;;;5027064;28;20547;-43
2022/04/03 03:07:45;;;;;;;7.40;5.53;;;2.90;68.60;;;;;;5007681;28;20488;-42
2022/04/03 03:10:20;;;;;;;5.27;4.73;;;2.90;68.50;;;;;;5007872;28;20526;-43
2022/04/03 03:12:47;;;;;;;5.40;4.70;;;2.90;68.50;;;;;;5007326;28;20466;-42
2022/04/03 03:15:15;;;;;;;5.33;3.80;;;2.90;68.60;;;;;;5006802;28;20452;-43
2022/04/03 03:17:41;;;;;;;4.30;3.90;;;2.80;68.40;;;;;;5025627;28;20562;-43
2022/04/03 03:20:10;;;;;;;4.23;3.60;;;2.80;68.20;;;;;;5025272;28;20468;-43
2022/04/03 03:22:37;;;;;;;4.10;3.47;;;2.80;68.20;;;;;;5024472;28;20472;-43
2022/04/03 03:25:05;;;;;;;4.73;3.90;;;2.80;68.00;;;;;;5024719;28;20575;-43
2022/04/03 03:27:32;;;;;;;4.60;4.20;;;2.80;68.00;;;;;;5024357;28;20982;-43
2022/04/03 03:29:59;;;;;;;6.83;4.77;;;2.80;68.00;;;;;;5025247;28;20470;-43
2022/04/03 03:32:26;;;;;;;4.30;3.60;;;2.80;67.80;;;;;;5021797;28;21018;-43
2022/04/03 03:34:54;;;;;;;5.20;3.50;;;2.70;67.50;;;;;;5025593;28;20965;-43
2022/04/03 03:37:21;;;;;;;4.07;3.70;;;2.70;67.60;;;;;;5027313;28;20549;-43
2022/04/03 03:39:48;;;;;;;4.50;3.50;;;2.70;67.50;;;;;;5005053;28;20990;-42
2022/04/03 03:42:14;;;;;;;3.93;3.60;;;2.60;67.50;;;;;;5025034;28;20455;-43
2022/04/03 03:44:41;;;;;;;4.20;3.80;;;2.60;67.60;;;;;;5025136;28;20956;-43
2022/04/03 03:47:08;;;;;;;4.53;3.60;;;2.60;67.60;;;;;;5025365;28;20463;-43
2022/04/03 03:49:35;;;;;;;7.27;3.90;;;2.50;67.90;;;;;;5025111;28;20483;-43
2022/04/03 03:52:03;;;;;;;5.70;3.97;;;2.50;67.80;;;;;;5025251;28;20467;-43
2022/04/03 03:54:30;;;;;;;5.07;4.23;;;2.50;68.10;;;;;;5023746;28;20462;-42
2022/04/03 03:56:56;;;;;;;4.50;3.73;;;2.40;68.10;;;;;;5006690;28;21177;-43
2022/04/03 03:59:23;;;;;;;5.30;4.30;;;2.40;68.30;;;;;;5024185;28;20475;-42
2022/04/03 04:01:50;;;;;;;3.90;3.50;;;2.40;68.10;;;;;;5024280;28;20464;-43
2022/04/03 04:04:17;;;;;;;4.27;3.37;;;2.40;68.20;;;;;;5023776;28;20475;-42
2022/04/03 04:06:44;;;;;;;5.90;4.37;;;2.30;68.00;;;;;;5008982;28;20447;-42
2022/04/03 04:09:12;;;;;;;5.07;4.60;;;2.30;68.00;;;;;;5025535;28;20510;-42
2022/04/03 04:11:39;;;;;;;6.63;4.40;;;2.20;68.30;;;;;;5026394;28;20447;-42
2022/04/03 04:14:06;;;;;;;5.60;4.60;;;2.20;68.40;;;;;;5026018;28;20452;-42
2022/04/03 04:16:33;;;;;;;11.50;6.03;;;2.20;69.30;;;;;;5025202;28;20980;-43
2022/04/03 04:19:06;;;;;;;11.90;8.60;;;2.10;69.40;;;;;;5007025;28;20506;-42
2022/04/03 04:21:33;;;;;;;10.23;7.13;;;2.10;69.90;;;;;;5008867;28;20823;-42
2022/04/03 04:23:59;;;;;;;13.43;6.27;;;2.00;70.20;;;;;;5026894;28;20473;-42
2022/04/03 04:26:26;;;;;;;5.93;5.00;;;2.00;70.30;;;;;;5026330;28;20556;-42
2022/04/03 04:28:53;;;;;;;6.07;4.80;;;2.00;70.80;;;;;;5025089;28;20494;-42
2022/04/03 04:31:20;;;;;;;4.83;4.33;;;1.90;70.90;;;;;;5025795;28;20479;-42
2022/04/03 04:33:46;;;;;;;6.33;4.63;;;1.80;71.10;;;;;;5024463;28;20463;-42
2022/04/03 04:36:13;;;;;;;5.90;4.37;;;1.90;71.40;;;;;;5006684;28;20440;-42
2022/04/03 04:38:40;;;;;;;6.57;4.57;;;1.80;71.20;;;;;;5025327;28;20468;-42
2022/04/03 04:41:07;;;;;;;4.80;3.83;;;1.80;71.50;;;;;;5012187;28;20885;-43
2022/04/03 04:43:33;;;;;;;8.73;4.30;;;1.80;71.60;;;;;;5007134;28;20455;-42
2022/04/03 04:46:00;;;;;;;6.40;4.23;;;1.70;71.60;;;;;;5024785;28;20482;-42
2022/04/03 04:48:27;;;;;;;6.37;4.17;;;1.70;71.80;;;;;;5022548;28;20479;-42
2022/04/03 04:50:54;;;;;;;5.60;4.70;;;1.70;71.70;;;;;;5025982;28;20447;-42
2022/04/03 04:53:21;;;;;;;5.50;4.60;;;1.70;71.40;;;;;;5025542;28;20451;-42
2022/04/03 04:55:48;;;;;;;6.27;4.77;;;1.70;71.60;;;;;;5025904;28;20451;-43
2022/04/03 04:58:14;;;;;;;11.53;5.63;;;1.70;71.70;;;;;;5007139;28;20526;-42
2022/04/03 05:00:42;;;;;;;8.13;5.70;;;1.60;71.90;;;;;;5025661;28;20913;-42
2022/04/03 05:03:08;;;;;;;8.37;5.53;;;1.60;72.00;;;;;;5023789;28;20467;-42
2022/04/03 05:05:36;;;;;;;6.47;5.30;;;1.70;71.60;;;;;;5025602;28;20502;-43
2022/04/03 05:08:03;;;;;;;5.90;4.60;;;1.60;71.90;;;;;;5023625;28;20812;-43
2022/04/03 05:10:31;;;;;;;7.03;5.20;;;1.70;72.50;;;;;;5022395;28;20566;-43
2022/04/03 05:12:59;;;;;;;7.50;5.43;;;1.70;72.50;;;;;;5025124;28;20463;-43
2022/04/03 05:15:28;;;;;;;6.97;4.57;;;1.60;72.40;;;;;;5025795;28;20458;-42
2022/04/03 05:17:55;;;;;;;5.17;3.80;;;1.70;72.70;;;;;;5023541;28;20502;-42
2022/04/03 05:20:22;;;;;;;5.63;5.03;;;1.70;72.60;;;;;;5023669;28;20457;-41
2022/04/03 05:22:49;;;;;;;5.00;4.30;;;1.70;72.40;;;;;;5007139;28;20455;-42
2022/04/03 05:25:16;;;;;;;5.33;4.17;;;1.70;72.40;;;;;;5026258;28;21011;-41
2022/04/03 05:27:44;;;;;;;6.97;3.77;;;1.60;72.10;;;;;;5025557;28;20452;-41
2022/04/03 05:30:12;;;;;;;6.77;4.07;;;1.60;71.90;;;;;;5006542;28;20511;-41
2022/04/03 05:32:38;;;;;;;5.07;4.53;;;1.60;72.20;;;;;;5003642;28;20502;-42
2022/04/03 05:35:08;;;;;;;6.67;5.03;;;1.60;72.20;;;;;;5004753;28;20467;-42
2022/04/03 05:37:41;;;;;;;6.57;4.50;;;1.60;72.00;;;;;;5026215;28;20450;-42
2022/04/03 05:40:11;;;;;;;5.80;4.20;;;1.60;72.20;;;;;;5006640;28;20978;-41
2022/04/03 05:42:38;;;;;;;4.73;4.17;;;1.60;72.30;;;;;;5024605;28;20463;-41
2022/04/03 05:45:05;;;;;;;5.30;4.80;;;1.60;72.40;;;;;;5016758;28;20471;-42
2022/04/03 05:47:33;;;;;;;6.77;5.70;;;1.60;72.70;;;;;;5021418;28;20463;-42
2022/04/03 05:50:00;;;;;;;6.87;6.10;;;1.70;72.90;;;;;;5025410;28;20487;-42
2022/04/03 05:52:27;;;;;;;6.60;5.40;;;1.70;72.90;;;;;;5024876;28;20456;-41
2022/04/03 05:54:53;;;;;;;6.57;4.47;;;1.70;72.90;;;;;;5025882;28;20462;-42
2022/04/03 05:57:20;;;;;;;6.47;4.87;;;1.70;72.90;;;;;;5021807;28;20836;-42
2022/04/03 05:59:47;;;;;;;4.33;3.90;;;1.70;72.90;;;;;;5024725;28;21036;-42
2022/04/03 06:02:14;;;;;;;4.17;3.80;;;1.80;72.60;;;;;;5019422;28;20460;-42
2022/04/03 06:04:41;;;;;;;3.77;3.37;;;1.80;72.30;;;;;;5025777;28;20458;-42
2022/04/03 06:07:08;;;;;;;3.30;3.00;;;1.80;72.30;;;;;;5027401;28;20578;-41
2022/04/03 06:09:34;;;;;;;5.20;3.50;;;1.90;71.40;;;;;;5009199;28;20479;-42
2022/04/03 06:12:01;;;;;;;4.17;3.50;;;2.00;70.80;;;;;;5006127;28;20475;-42
2022/04/03 06:14:28;;;;;;;3.23;2.93;;;2.00;70.00;;;;;;5026880;28;20456;-43
2022/04/03 06:16:55;;;;;;;3.40;2.90;;;2.10;69.20;;;;;;5027180;28;20459;-42
2022/04/03 06:19:21;;;;;;;3.90;3.57;;;2.10;68.90;;;;;;5008744;28;20470;-43
2022/04/03 06:21:48;;;;;;;5.43;3.00;;;2.20;68.80;;;;;;5022652;28;20460;-42
2022/04/03 06:24:15;;;;;;;4.23;2.83;;;2.20;66.90;;;;;;5009003;28;20952;-42
2022/04/03 06:26:42;;;;;;;4.33;3.67;;;2.20;67.10;;;;;;5021660;28;20513;-42
2022/04/03 06:29:09;;;;;;;3.70;2.50;;;2.30;67.40;;;;;;5024978;28;20573;-42
2022/04/03 06:31:36;;;;;;;3.20;2.90;;;2.40;66.00;;;;;;5025823;28;20479;-42
2022/04/03 06:34:02;;;;;;;4.07;2.97;;;2.40;65.60;;;;;;5025181;28;20470;-42
2022/04/03 06:36:29;;;;;;;7.90;4.20;;;2.50;64.00;;;;;;5028932;28;20452;-42
2022/04/03 06:38:56;;;;;;;3.67;3.03;;;2.50;64.00;;;;;;5025700;28;20860;-42
2022/04/03 06:41:23;;;;;;;3.13;2.83;;;2.60;64.40;;;;;;5025340;28;20489;-42
2022/04/03 06:43:50;;;;;;;4.93;3.63;;;2.50;64.10;;;;;;5026773;28;20471;-42
2022/04/03 06:46:17;;;;;;;3.97;3.60;;;2.60;64.30;;;;;;5010154;28;20549;-42
2022/04/03 06:48:44;;;;;;;3.10;2.63;;;2.60;63.70;;;;;;5009375;28;20579;-43
2022/04/03 06:51:11;;;;;;;7.03;3.27;;;2.70;63.90;;;;;;5025714;28;20949;-42
2022/04/03 06:53:37;;;;;;;4.23;2.87;;;2.70;62.90;;;;;;5008322;28;20764;-43
2022/04/03 06:56:04;;;;;;;3.33;3.03;;;2.80;62.90;;;;;;5027189;28;20466;-42
2022/04/03 06:58:31;;;;;;;4.60;3.17;;;2.90;63.00;;;;;;5024847;28;20877;-42
2022/04/03 07:00:58;;;;;;;4.30;3.00;;;2.90;62.80;;;;;;5026892;28;20840;-42
2022/04/03 07:03:26;;;;;;;3.57;3.27;;;3.00;63.20;;;;;;5023873;28;20456;-42
2022/04/03 07:05:53;;;;;;;3.13;2.50;;;3.00;62.80;;;;;;5025524;28;20457;-42
2022/04/03 07:08:20;;;;;;;4.70;2.80;;;3.10;62.10;;;;;;5026016;28;20975;-42
2022/04/03 07:10:47;;;;;;;3.37;3.03;;;3.20;61.70;;;;;;5024549;28;20482;-42
2022/04/03 07:13:14;;;;;;;2.80;2.60;;;3.20;61.90;;;;;;5026453;28;20454;-43
2022/04/03 07:15:41;;;;;;;2.73;2.43;;;3.20;60.30;;;;;;5020024;28;20460;-43
2022/04/03 07:18:08;;;;;;;4.97;2.37;;;3.30;60.80;;;;;;5027332;28;20452;-42
2022/04/03 07:20:34;;;;;;;2.33;2.13;;;3.40;58.20;;;;;;5025847;28;20459;-43
2022/04/03 07:23:01;;;;;;;2.93;2.37;;;3.40;59.30;;;;;;5025598;28;20470;-43
2022/04/03 07:25:28;;;;;;;3.03;2.27;;;3.40;59.90;;;;;;5019385;28;20482;-43
2022/04/03 07:27:55;;;;;;;4.20;2.70;;;3.40;57.90;;;;;;4987797;28;20461;-43
2022/04/03 07:30:21;;;;;;;4.30;2.47;;;3.40;57.60;;;;;;5023331;28;20479;-43
2022/04/03 07:32:48;;;;;;;2.33;2.20;;;3.50;56.10;;;;;;5022736;28;21000;-42
2022/04/03 07:35:15;;;;;;;2.43;1.93;;;3.60;56.80;;;;;;5004311;28;20467;-42
2022/04/03 07:37:42;;;;;;;3.97;2.57;;;3.70;58.00;;;;;;5026582;28;20455;-43
2022/04/03 07:40:09;;;;;;;3.23;2.07;;;3.90;57.90;;;;;;5022562;28;20452;-42
2022/04/03 07:42:39;;;;;;;3.67;2.20;;;4.10;57.70;;;;;;5003131;28;20855;-43
2022/04/03 07:45:06;;;;;;;4.70;2.13;;;4.20;55.30;;;;;;5019070;28;20551;-43
2022/04/03 07:47:33;;;;;;;3.73;1.70;;;4.40;55.50;;;;;;5022343;28;20476;-43
2022/04/03 07:50:03;;;;;;;3.13;1.97;;;4.60;54.90;;;;;;5025516;28;21102;-43
2022/04/03 07:52:32;;;;;;;2.07;1.83;;;4.80;54.50;;;;;;5026548;28;20487;-43
2022/04/03 07:54:59;;;;;;;2.53;1.97;;;5.10;54.10;;;;;;5024795;28;20783;-43
2022/04/03 07:57:26;;;;;;;1.67;1.40;;;5.20;52.10;;;;;;5022366;28;20463;-42
2022/04/03 07:59:53;;;;;;;2.10;1.70;;;5.40;51.60;;;;;;5003860;28;20475;-43
2022/04/03 08:02:20;;;;;;;2.37;2.07;;;5.70;51.30;;;;;;5021312;28;20464;-43
2022/04/03 08:04:47;;;;;;;1.73;1.63;;;5.90;51.30;;;;;;5022664;28;20483;-43
2022/04/03 08:07:14;;;;;;;1.50;1.40;;;6.10;50.10;;;;;;5022781;28;20917;-43
2022/04/03 08:09:41;;;;;;;2.10;1.60;;;6.20;48.90;;;;;;4998656;28;20487;-43
2022/04/03 08:12:08;;;;;;;2.40;1.67;;;6.40;48.90;;;;;;5021735;28;20465;-42
2022/04/03 08:14:35;;;;;;;3.03;1.63;;;6.60;47.70;;;;;;5022943;28;20464;-42
2022/04/03 08:17:02;;;;;;;2.57;1.67;;;6.80;46.80;;;;;;5017221;28;20463;-41
2022/04/03 08:19:29;;;;;;;2.70;1.60;;;6.90;46.50;;;;;;5024179;28;20938;-42
2022/04/03 08:21:55;;;;;;;1.73;1.60;;;7.10;46.50;;;;;;5023500;28;20486;-42
2022/04/03 08:24:22;;;;;;;4.30;1.80;;;7.20;44.40;;;;;;5021761;28;20471;-42
2022/04/03 08:26:49;;;;;;;2.17;1.20;;;7.30;44.60;;;;;;5023574;28;20461;-42
2022/04/03 08:29:16;;;;;;;2.23;1.60;;;7.40;43.80;;;;;;5023467;28;21045;-42
2022/04/03 08:31:43;;;;;;;1.47;1.23;;;7.60;43.80;;;;;;5005538;28;20479;-41
2022/04/03 08:34:09;;;;;;;2.10;1.60;;;7.70;41.80;;;;;;5005602;28;20491;-42
2022/04/03 08:36:57;;;;;;;1.60;1.50;;;7.80;42.50;;;;;;5022665;28;20461;-42
2022/04/03 08:39:24;;;;;;;1.67;1.57;;;7.90;42.30;;;;;;5021264;28;20453;-42
2022/04/03 08:41:51;;;;;;;2.37;1.80;;;8.00;41.70;;;;;;5024097;28;20910;-42
2022/04/03 08:44:18;;;;;;;2.27;2.00;;;8.20;41.40;;;;;;5025887;28;20455;-42
2022/04/03 08:46:48;;;;;;;1.10;1.10;;;8.30;41.60;;;;;;5025679;28;20459;-42
2022/04/03 08:49:17;;;;;;;1.67;1.57;;;8.20;41.80;;;;;;5023849;28;20507;-42
2022/04/03 08:51:44;;;;;;;1.87;1.73;;;8.00;41.70;;;;;;5005990;28;20459;-42
2022/04/03 08:54:11;;;;;;;2.93;1.60;;;7.80;42.50;;;;;;5023237;28;20837;-42
2022/04/03 08:56:38;;;;;;;2.30;1.57;;;7.50;42.70;;;;;;5025758;28;20533;-42
2022/04/03 08:59:04;;;;;;;3.03;1.43;;;7.30;42.90;;;;;;5006444;28;20468;-42
2022/04/03 09:01:31;;;;;;;1.37;1.27;;;7.30;42.70;;;;;;5023032;28;20454;-42
2022/04/03 09:03:59;;;;;;;2.13;1.37;;;7.20;41.40;;;;;;5024582;28;20451;-42
2022/04/03 09:06:26;;;;;;;1.93;1.37;;;7.10;40.80;;;;;;5025810;28;21025;-42
2022/04/03 09:08:53;;;;;;;1.97;1.40;;;7.10;42.10;;;;;;5025066;28;20456;-42
2022/04/03 09:11:20;;;;;;;1.67;1.57;;;7.10;41.60;;;;;;5025978;28;20436;-42
2022/04/03 09:13:47;;;;;;;2.00;1.70;;;7.00;41.40;;;;;;5017518;28;20468;-47
2022/04/03 09:16:14;;;;;;;2.90;1.63;;;6.90;42.40;;;;;;5040765;28;20449;-47
2022/04/03 09:18:51;;;;;;;1.30;1.20;;;7.10;41.30;;;;;;5037603;28;20448;-47
2022/04/03 09:21:24;;;;;;;1.47;1.37;;;7.50;42.00;;;;;;5038397;28;20453;-46
2022/04/03 09:24:11;;;;;;;1.73;1.30;;;7.90;39.60;;;;;;5037442;28;20468;-46
2022/04/03 09:26:40;;;;;;;1.03;0.93;;;8.30;39.50;;;;;;5037504;28;20455;-46
2022/04/03 09:29:15;;;;;;;1.30;1.03;;;8.50;36.80;;;;;;5037516;28;20469;-46
2022/04/03 09:31:44;;;;;;;1.87;1.37;;;8.60;37.90;;;;;;5037841;28;20919;-46
2022/04/03 09:34:19;;;;;;;1.40;1.13;;;8.80;37.00;;;;;;5037066;28;20535;-46
2022/04/03 09:37:01;;;;;;;1.00;0.90;;;9.10;37.00;;;;;;5037672;28;20458;-46
2022/04/03 09:39:30;;;;;;;1.10;1.10;;;9.40;35.70;;;;;;5036788;28;20468;-46
2022/04/03 09:42:22;;;;;;;1.47;1.37;;;9.50;36.50;;;;;;5023233;28;20475;-46
2022/04/03 09:44:51;;;;;;;2.80;1.87;;;9.40;37.40;;;;;;5030232;28;20480;-47
2022/04/03 09:47:26;;;;;;;2.70;1.43;;;9.40;38.00;;;;;;5021593;28;20479;-47
2022/04/03 09:49:57;;;;;;;4.00;1.63;;;9.40;37.20;;;;;;5039429;28;20877;-47
2022/04/03 09:52:47;;;;;;;1.97;1.80;;;9.30;37.10;;;;;;5038918;28;20973;-47
2022/04/03 09:55:20;;;;;;;1.23;1.13;;;9.40;36.10;;;;;;5038523;28;20435;-47
2022/04/03 09:57:49;;;;;;;1.40;1.30;;;9.50;37.70;;;;;;5006826;28;20475;-47
2022/04/03 10:00:41;;;;;;;2.87;1.40;;;9.40;37.00;;;;;;5039458;28;20968;-47
2022/04/03 10:03:13;;;;;;;1.63;1.53;;;9.30;36.60;;;;;;5040115;28;20456;-47
2022/04/03 10:05:42;;;;;;;1.43;1.33;;;9.00;36.10;;;;;;5038130;28;21027;-47
2022/04/03 10:08:10;;;;;;;2.50;1.70;;;9.00;37.90;;;;;;5024095;28;21053;-47
2022/04/03 10:10:36;;;;;;;1.30;1.20;;;9.30;36.20;;;;;;5037637;28;20494;-47
2022/04/03 10:13:04;;;;;;;2.43;1.73;;;9.70;36.50;;;;;;5037331;28;20462;-47
2022/04/03 10:15:32;;;;;;;1.40;1.30;;;10.10;36.50;;;;;;5036756;28;20544;-47
2022/04/03 10:17:58;;;;;;;1.70;1.50;;;10.40;34.90;;;;;;5037929;28;20444;-47
2022/04/03 10:20:28;;;;;;;2.87;1.50;;;10.60;36.10;;;;;;5035651;28;20453;-47
2022/04/03 10:23:04;;;;;;;2.83;1.50;;;10.70;35.40;;;;;;5019187;28;20472;-47
2022/04/03 10:25:41;;;;;;;1.80;1.70;;;11.00;35.40;;;;;;5034806;28;21021;-47
2022/04/03 10:28:09;;;;;;;2.13;1.30;;;11.20;33.30;;;;;;5037674;28;21898;-48
2022/04/03 10:30:43;;;;;;;1.50;1.30;;;11.70;33.80;;;;;;5036731;28;20518;-47
2022/04/03 10:33:24;;;;;;;2.10;1.87;;;12.30;33.00;;;;;;5037666;28;20441;-47
2022/04/03 10:36:03;;;;;;;3.00;1.80;;;12.80;30.90;;;;;;5019517;28;20460;-47
2022/04/03 10:38:55;;;;;;;2.40;2.03;;;13.40;31.20;;;;;;5038168;28;21003;-47
2022/04/03 10:41:35;;;;;;;1.67;1.50;;;13.70;30.80;;;;;;5040039;28;20447;-47
2022/04/03 10:44:22;;;;;;;1.73;1.63;;;13.80;30.60;;;;;;5037089;28;20485;-47
2022/04/03 10:47:02;;;;;;;1.90;1.57;;;13.90;29.90;;;;;;5037473;28;20475;-48
2022/04/03 10:49:30;;;;;;;1.87;1.77;;;14.20;30.00;;;;;;5036644;28;20846;-47
2022/04/03 10:52:06;;;;;;;3.83;1.30;;;14.50;28.20;;;;;;5017434;28;20454;-48
2022/04/03 10:54:43;;;;;;;1.40;1.30;;;14.70;27.50;;;;;;5002166;28;20472;-47
2022/04/03 10:57:31;;;;;;;1.90;1.70;;;14.90;28.10;;;;;;5034356;28;20441;-47
2022/04/03 11:00:18;;;;;;;2.10;1.33;;;14.90;27.20;;;;;;5033801;28;20458;-47
2022/04/03 11:02:53;;;;;;;3.93;1.30;;;14.80;28.20;;;;;;5023092;28;20465;-47
2022/04/03 11:05:22;;;;;;;1.90;1.70;;;14.90;29.10;;;;;;5034899;28;20978;-47
2022/04/03 11:07:50;;;;;;;2.33;1.63;;;15.10;29.40;;;;;;5034931;28;20478;-47
2022/04/03 11:11:00;;;;;;;1.40;1.30;;;15.20;28.40;;;;;;5021502;28;21032;-47
2022/04/03 11:13:29;;;;;;;2.50;1.90;;;15.20;27.70;;;;;;5031859;28;20532;-47
2022/04/03 11:16:07;;;;;;;1.40;1.30;;;15.20;27.80;;;;;;5036432;28;20457;-47
2022/04/03 11:18:43;;;;;;;1.40;1.30;;;15.30;27.50;;;;;;5035819;28;20440;-48
2022/04/03 11:21:16;;;;;;;1.97;1.83;;;15.20;26.80;;;;;;5036721;28;20503;-48
2022/04/03 11:23:48;;;;;;;1.70;1.60;;;15.00;28.00;;;;;;5033225;28;20463;-48
2022/04/03 11:26:16;;;;;;;2.47;1.73;;;15.10;25.50;;;;;;5035245;28;20493;-47
2022/04/03 11:28:44;;;;;;;2.80;1.60;;;15.00;27.60;;;;;;5035014;28;20519;-47
2022/04/03 11:31:12;;;;;;;1.70;1.60;;;14.80;28.60;;;;;;5014972;28;20890;-47
2022/04/03 11:33:39;;;;;;;2.07;1.60;;;14.90;28.10;;;;;;5033718;28;20461;-47
2022/04/03 11:36:12;;;;;;;1.90;1.67;;;14.90;28.50;;;;;;5032709;28;20866;-47
2022/04/03 11:38:47;;;;;;;1.70;1.60;;;14.90;28.80;;;;;;5031596;28;20982;-48
2022/04/03 11:41:22;;;;;;;2.20;1.97;;;14.70;28.10;;;;;;5035259;28;20452;-48
2022/04/03 11:44:02;;;;;;;1.80;1.70;;;14.70;29.50;;;;;;5032860;28;20456;-47
2022/04/03 11:46:30;;;;;;;2.30;2.10;;;14.60;29.10;;;;;;5031715;28;20467;-47
2022/04/03 11:48:57;;;;;;;2.80;2.10;;;14.40;29.90;;;;;;5034093;28;20537;-48
2022/04/03 11:51:24;;;;;;;6.53;2.67;;;14.20;29.90;;;;;;5033423;28;20492;-47
2022/04/03 11:54:01;;;;;;;2.20;2.00;;;13.90;28.10;;;;;;5032177;28;20953;-47
2022/04/03 11:56:35;;;;;;;2.00;1.90;;;13.60;28.90;;;;;;5032712;28;20452;-47
2022/04/03 11:59:07;;;;;;;2.13;1.93;;;13.30;28.80;;;;;;5033775;28;20455;-47
2022/04/03 12:01:38;;;;;;;1.83;1.73;;;13.10;28.30;;;;;;5031415;28;20962;-47
2022/04/03 12:04:12;;;;;;;1.90;1.80;;;12.80;30.50;;;;;;5033517;28;20504;-47
2022/04/03 12:06:44;;;;;;;1.63;1.50;;;12.70;31.00;;;;;;5034196;28;20456;-47
2022/04/03 12:09:13;;;;;;;1.87;1.77;;;12.60;29.80;;;;;;5031131;28;21027;-47
2022/04/03 12:11:51;;;;;;;2.53;2.37;;;12.60;31.90;;;;;;5016840;28;20490;-47
2022/04/03 12:14:30;;;;;;;2.07;1.97;;;12.60;31.80;;;;;;5031991;28;20439;-47
2022/04/03 12:16:58;;;;;;;2.47;2.27;;;12.70;32.70;;;;;;5034899;28;20457;-47
2022/04/03 12:19:25;;;;;;;3.87;2.20;;;12.70;31.80;;;;;;5015694;28;20447;-47
2022/04/03 12:22:00;;;;;;;2.40;2.20;;;12.70;31.50;;;;;;5030034;28;20453;-47
2022/04/03 12:24:30;;;;;;;2.60;2.40;;;12.50;31.10;;;;;;5034059;28;20476;-47
2022/04/03 12:26:59;;;;;;;1.80;1.70;;;12.40;29.70;;;;;;5034258;28;20449;-47
2022/04/03 12:29:28;;;;;;;2.53;2.33;;;12.10;28.80;;;;;;5033038;28;20541;-47
2022/04/03 12:32:02;;;;;;;2.80;2.20;;;11.80;29.60;;;;;;5032201;28;21177;-47
2022/04/03 12:34:34;;;;;;;2.27;2.10;;;11.80;31.30;;;;;;5033960;28;20543;-47
2022/04/03 12:37:03;;;;;;;2.10;1.90;;;11.70;32.20;;;;;;5032623;28;20465;-47
2022/04/03 12:39:37;;;;;;;2.50;2.30;;;11.80;32.30;;;;;;5032179;28;20445;-47
2022/04/03 12:42:23;;;;;;;2.37;2.17;;;11.90;31.80;;;;;;5033899;28;20528;-47
2022/04/03 12:45:13;;;;;;;2.60;2.33;;;12.00;33.70;;;;;;5034232;28;20449;-47
2022/04/03 12:47:45;;;;;;;2.17;1.70;;;12.00;33.30;;;;;;5032669;28;20479;-47
2022/04/03 12:50:24;;;;;;;2.43;2.23;;;12.10;33.40;;;;;;4999079;28;20576;-47
2022/04/03 12:52:56;;;;;;;2.63;2.10;;;12.10;31.80;;;;;;5029959;28;20449;-47
2022/04/03 12:55:26;;;;;;;2.47;2.27;;;12.20;33.00;;;;;;5035436;28;20441;-47
2022/04/03 13:01:11;;;;;;;3.50;2.60;;;12.30;31.90;;;;;;5035814;28;20464;-47
2022/04/03 13:03:49;;;;;;;2.80;2.60;;;12.40;33.50;;;;;;5033810;28;20464;-47
2022/04/03 13:06:26;;;;;;;2.30;2.10;;;12.60;32.10;;;;;;5033796;28;20460;-47
2022/04/03 13:08:54;;;;;;;2.40;2.07;;;12.70;32.30;;;;;;5035128;28;20455;-47